Time;durP1;ratioP1;P1;durP2;ratioP2;P2;SDS_P1;SDS_P2;PMS_P1;PMS_P2;Temp;Humidity;BMP_temperature;BMP_pressure;BME280_temperature;BME280_humidity;BME280_pressure;Samples;Min_cycle;Max_cycle;Signal;HPM_P1;HPM_P2
2023/09/21 00:00:11;;;;;;;5.30;2.25;;;;;;;27.01;95.72;95340.75;5044693;28;20032;-87
2023/09/21 00:02:44;;;;;;;6.03;2.42;;;;;;;27.21;93.31;95342.47;5065777;28;20531;-88
2023/09/21 00:05:11;;;;;;;5.13;2.40;;;;;;;27.23;91.90;95334.88;5059674;28;20024;-87
2023/09/21 00:07:37;;;;;;;4.40;1.98;;;;;;;27.41;90.58;95339.53;5074038;28;20375;-88
2023/09/21 00:10:09;;;;;;;7.20;2.22;;;;;;;27.40;89.24;95332.53;5073976;28;20062;-88
2023/09/21 00:12:35;;;;;;;4.63;2.20;;;;;;;27.52;89.10;95334.03;5075821;28;20052;-88
2023/09/21 00:15:04;;;;;;;5.43;2.10;;;;;;;27.35;90.95;95323.69;5061491;28;20101;-88
2023/09/21 00:17:32;;;;;;;5.50;2.22;;;;;;;26.90;94.20;95328.47;5065308;28;20023;-87
2023/09/21 00:19:59;;;;;;;5.75;2.53;;;;;;;26.72;95.27;95325.38;5070928;28;20020;-87
2023/09/21 00:22:25;;;;;;;6.55;2.38;;;;;;;26.75;94.04;95321.31;5072596;28;20017;-87
2023/09/21 00:24:52;;;;;;;5.00;2.20;;;;;;;26.63;96.03;95318.19;5069635;28;20093;-88
2023/09/21 00:27:18;;;;;;;5.65;2.28;;;;;;;26.77;94.55;95311.84;5065109;28;20020;-88
2023/09/21 00:29:46;;;;;;;7.13;2.40;;;;;;;26.58;98.23;95304.75;5053392;28;20027;-88
2023/09/21 00:32:11;;;;;;;4.22;2.17;;;;;;;26.67;95.87;95308.44;5057172;28;20043;-88
2023/09/21 00:34:37;;;;;;;7.05;2.63;;;;;;;26.88;93.91;95307.16;5057193;28;20024;-88
2023/09/21 00:37:04;;;;;;;5.03;2.33;;;;;;;26.62;95.37;95306.56;5060520;28;20024;-88
2023/09/21 00:39:34;;;;;;;3.47;1.98;;;;;;;26.78;94.73;95310.75;5051687;28;20032;-88
2023/09/21 00:42:00;;;;;;;3.75;2.03;;;;;;;26.55;96.66;95306.09;5069228;28;20133;-88
2023/09/21 00:44:26;;;;;;;6.53;2.50;;;;;;;26.21;97.60;95306.09;5059670;28;20030;-88
2023/09/21 00:46:52;;;;;;;4.35;1.98;;;;;;;26.45;98.20;95300.78;5054009;28;20046;-87
2023/09/21 00:49:18;;;;;;;6.10;2.42;;;;;;;26.30;97.38;95305.19;5078859;28;20148;-87
2023/09/21 00:51:45;;;;;;;4.45;1.90;;;;;;;26.60;96.72;95299.88;5066912;28;20024;-88
2023/09/21 00:54:12;;;;;;;5.88;2.47;;;;;;;26.20;99.57;95301.78;5076339;28;20383;-87
2023/09/21 00:56:39;;;;;;;4.10;2.55;;;;;;;26.30;99.99;95309.78;5055943;28;20103;-88
2023/09/21 00:59:05;;;;;;;6.00;2.38;;;;;;;25.89;100.00;95304.69;5061226;28;20044;-88
2023/09/21 01:01:33;;;;;;;5.72;2.10;;;;;;;25.70;100.00;95301.00;5058712;28;20038;-88
2023/09/21 01:04:07;;;;;;;4.80;2.30;;;;;;;25.43;100.00;95296.81;5072487;28;20117;-88
2023/09/21 01:06:33;;;;;;;5.45;2.35;;;;;;;25.76;100.00;95292.59;5057423;28;20393;-87
2023/09/21 01:09:00;;;;;;;5.13;2.00;;;;;;;26.08;100.00;95297.53;5056261;28;20474;-87
2023/09/21 01:11:26;;;;;;;4.57;1.77;;;;;;;26.46;96.21;95278.94;5049218;28;20490;-88
2023/09/21 01:13:51;;;;;;;6.88;2.78;;;;;;;26.09;99.39;95283.00;5062329;28;20061;-87
2023/09/21 01:16:18;;;;;;;3.83;2.30;;;;;;;25.84;100.00;95285.84;5056590;28;20027;-87
2023/09/21 01:18:53;;;;;;;4.93;2.35;;;;;;;25.64;100.00;95281.34;5057725;28;20031;-88
2023/09/21 01:21:30;;;;;;;5.28;2.28;;;;;;;25.34;100.00;95282.31;5049037;28;20862;-88
2023/09/21 01:23:57;;;;;;;4.95;1.92;;;;;;;25.68;100.00;95279.72;5074246;28;20034;-87
2023/09/21 01:26:22;;;;;;;6.63;2.40;;;;;;;25.31;100.00;95277.47;5075074;28;20012;-88
2023/09/21 01:28:49;;;;;;;4.60;2.08;;;;;;;25.44;100.00;95278.75;5085462;28;20372;-88
2023/09/21 01:31:16;;;;;;;4.50;2.65;;;;;;;25.60;100.00;95275.72;5055420;28;20023;-87
2023/09/21 01:33:42;;;;;;;4.28;2.25;;;;;;;24.83;100.00;95277.06;5064221;28;20086;-88
2023/09/21 01:36:09;;;;;;;4.57;2.25;;;;;;;24.93;100.00;95288.59;5057202;28;20016;-88
2023/09/21 01:38:36;;;;;;;5.68;2.30;;;;;;;24.88;100.00;95285.09;5069122;28;20516;-88
2023/09/21 01:41:03;;;;;;;3.60;2.10;;;;;;;24.75;100.00;95274.91;5067546;28;20069;-87
2023/09/21 01:43:28;;;;;;;4.63;2.22;;;;;;;24.83;100.00;95271.69;5071224;28;20032;-88
2023/09/21 01:45:54;;;;;;;5.53;2.20;;;;;;;25.15;100.00;95274.84;5063658;28;20035;-88
2023/09/21 01:48:20;;;;;;;5.93;2.20;;;;;;;25.07;100.00;95272.69;5052136;28;20028;-87
2023/09/21 01:50:48;;;;;;;6.20;2.85;;;;;;;25.07;100.00;95277.25;5067430;28;20024;-88
2023/09/21 01:53:19;;;;;;;4.88;2.58;;;;;;;25.01;100.00;95273.78;5050121;28;20066;-88
2023/09/21 01:55:49;;;;;;;5.93;2.38;;;;;;;24.85;100.00;95274.91;5062534;28;20043;-88
2023/09/21 01:58:18;;;;;;;4.70;2.47;;;;;;;24.79;100.00;95267.94;5051959;28;20020;-88
2023/09/21 02:00:47;;;;;;;6.15;2.20;;;;;;;25.14;100.00;95267.03;5052218;28;20024;-88
2023/09/21 02:03:14;;;;;;;4.38;2.25;;;;;;;25.04;100.00;95258.97;5073141;28;20034;-87
2023/09/21 02:05:41;;;;;;;4.63;2.40;;;;;;;25.33;100.00;95253.78;5048050;28;20040;-87
2023/09/21 02:08:09;;;;;;;5.78;2.83;;;;;;;25.04;100.00;95254.41;5066971;28;20511;-87
2023/09/21 02:10:38;;;;;;;6.28;2.83;;;;;;;25.47;100.00;95245.91;5070111;28;20473;-87
2023/09/21 02:13:07;;;;;;;5.25;2.42;;;;;;;24.51;100.00;95253.19;5063645;28;20024;-87
2023/09/21 02:15:34;;;;;;;5.38;2.72;;;;;;;24.81;100.00;95250.44;5061101;28;20028;-87
2023/09/21 02:18:02;;;;;;;6.15;2.70;;;;;;;24.84;100.00;95246.41;5052966;28;20033;-87
2023/09/21 02:20:30;;;;;;;6.47;2.42;;;;;;;24.75;100.00;95242.66;5073666;28;20024;-87
2023/09/21 02:23:11;;;;;;;6.00;2.40;;;;;;;24.94;100.00;95235.59;5057807;28;20100;-87
2023/09/21 02:25:40;;;;;;;9.73;3.08;;;;;;;24.91;100.00;95236.16;5053067;28;20077;-88
2023/09/21 02:28:10;;;;;;;5.68;2.60;;;;;;;24.80;100.00;95237.28;5054576;28;20039;-87
2023/09/21 02:30:37;;;;;;;5.18;2.58;;;;;;;24.88;100.00;95234.00;5042101;28;20100;-88
2023/09/21 02:33:09;;;;;;;5.95;2.47;;;;;;;24.74;100.00;95232.97;5049149;28;20429;-88
2023/09/21 02:35:41;;;;;;;5.05;2.58;;;;;;;24.97;100.00;95228.88;5053120;28;20029;-88
2023/09/21 02:38:11;;;;;;;12.52;3.53;;;;;;;24.73;100.00;95226.00;5026589;28;20822;-87
2023/09/21 02:40:38;;;;;;;4.85;2.38;;;;;;;24.11;100.00;95223.38;5062973;28;20032;-87
2023/09/21 02:43:05;;;;;;;5.80;2.40;;;;;;;24.33;100.00;95219.59;5067289;28;20028;-87
2023/09/21 02:45:31;;;;;;;6.38;2.33;;;;;;;24.03;100.00;95226.59;5061864;28;20113;-87
2023/09/21 02:48:00;;;;;;;7.97;3.15;;;;;;;24.55;100.00;95216.66;5068519;28;20057;-87
2023/09/21 02:50:28;;;;;;;7.20;2.97;;;;;;;24.34;100.00;95222.00;5051460;28;20038;-87
2023/09/21 02:52:56;;;;;;;7.05;2.50;;;;;;;24.54;100.00;95217.69;5044162;28;20035;-87
2023/09/21 02:55:25;;;;;;;6.03;3.03;;;;;;;24.74;100.00;95208.78;5055048;28;20084;-88
2023/09/21 02:57:59;;;;;;;6.80;2.95;;;;;;;24.73;100.00;95217.94;5069704;28;20474;-88
2023/09/21 03:00:34;;;;;;;6.68;2.75;;;;;;;24.79;100.00;95211.47;5064621;28;20514;-87
2023/09/21 03:03:04;;;;;;;6.97;2.80;;;;;;;24.53;100.00;95210.72;5052383;28;20088;-87
2023/09/21 03:05:33;;;;;;;8.40;3.15;;;;;;;24.76;100.00;95212.00;5064258;28;20031;-87
2023/09/21 03:08:04;;;;;;;8.82;3.05;;;;;;;24.65;100.00;95203.19;5054788;28;20032;-88
2023/09/21 03:10:30;;;;;;;7.07;2.75;;;;;;;24.37;100.00;95210.72;5047454;28;20085;-87
2023/09/21 03:13:19;;;;;;;5.80;3.15;;;;;;;24.49;100.00;95204.28;5066197;28;20376;-87
2023/09/21 03:15:47;;;;;;;10.32;3.60;;;;;;;24.77;100.00;95197.47;5044020;28;20107;-87
2023/09/21 03:18:14;;;;;;;7.13;3.45;;;;;;;24.75;100.00;95194.25;5054576;28;20032;-88
2023/09/21 03:20:40;;;;;;;12.60;3.10;;;;;;;24.75;100.00;95189.69;5044570;28;20020;-87
2023/09/21 03:23:09;;;;;;;10.95;4.13;;;;;;;24.62;100.00;95191.06;5047184;28;20032;-88
2023/09/21 03:25:40;;;;;;;7.97;3.10;;;;;;;24.42;100.00;95201.88;5053871;28;20482;-88
2023/09/21 03:28:15;;;;;;;7.10;3.20;;;;;;;24.40;100.00;95190.56;5067186;28;20036;-87
2023/09/21 03:30:42;;;;;;;7.90;3.53;;;;;;;24.33;100.00;95185.47;5074991;28;20062;-87
2023/09/21 03:33:09;;;;;;;9.02;3.72;;;;;;;24.34;100.00;95178.19;5053331;28;20032;-88
2023/09/21 03:35:37;;;;;;;7.88;3.08;;;;;;;24.82;100.00;95171.38;5072893;28;20019;-87
2023/09/21 03:38:06;;;;;;;5.03;2.80;;;;;;;25.32;100.00;95166.06;5064745;28;20028;-87
2023/09/21 03:40:32;;;;;;;5.70;3.15;;;;;;;24.93;100.00;95172.16;5074311;28;20088;-86
2023/09/21 03:42:59;;;;;;;8.00;3.38;;;;;;;24.95;100.00;95167.31;5068184;28;20131;-86
2023/09/21 03:45:25;;;;;;;6.95;3.17;;;;;;;24.75;100.00;95170.06;5041428;28;20513;-85
2023/09/21 03:47:52;;;;;;;7.80;2.75;;;;;;;24.68;100.00;95167.66;5053798;28;20693;-85
2023/09/21 03:50:19;;;;;;;7.93;3.00;;;;;;;24.75;100.00;95162.81;5055321;28;20032;-85
2023/09/21 03:52:45;;;;;;;10.25;3.30;;;;;;;24.85;100.00;95161.97;5047116;28;20537;-86
2023/09/21 03:55:16;;;;;;;6.70;3.15;;;;;;;25.10;100.00;95153.75;5053005;28;20029;-86
2023/09/21 03:57:46;;;;;;;9.27;3.08;;;;;;;25.19;100.00;95158.63;5056145;28;20030;-85
2023/09/21 04:02:52;;;;;;;7.80;3.13;;;;;;;25.04;100.00;95152.19;5068007;28;20055;-85
2023/09/21 04:05:20;;;;;;;6.75;3.38;;;;;;;24.46;100.00;95152.69;5055074;28;20027;-85
2023/09/21 04:07:48;;;;;;;7.90;3.80;;;;;;;24.59;100.00;95150.50;5050741;28;20216;-85
2023/09/21 04:10:14;;;;;;;7.53;3.88;;;;;;;24.86;100.00;95144.75;5058198;28;20562;-85
2023/09/21 04:12:47;;;;;;;8.65;3.45;;;;;;;24.78;100.00;95142.63;5061555;28;20040;-86
2023/09/21 04:15:13;;;;;;;6.47;3.50;;;;;;;24.36;100.00;95151.88;5077284;28;20026;-85
2023/09/21 04:17:39;;;;;;;8.05;3.92;;;;;;;23.08;100.00;95149.16;5057106;28;20021;-85
2023/09/21 04:20:12;;;;;;;6.93;3.55;;;;;;;23.89;100.00;95140.41;5049357;28;20473;-85
2023/09/21 04:22:39;;;;;;;;;;;;;;;23.82;100.00;95139.06;5056074;28;20017;-85
2023/09/21 04:25:07;;;;;;;9.48;3.65;;;;;;;24.42;100.00;95138.19;5072963;28;20389;-85
2023/09/21 04:27:39;;;;;;;6.70;3.75;;;;;;;24.08;100.00;95131.75;5057874;28;20515;-85
2023/09/21 04:30:09;;;;;;;8.75;3.72;;;;;;;23.91;100.00;95129.38;5043628;28;20118;-85
2023/09/21 04:32:37;;;;;;;6.82;3.65;;;;;;;23.70;100.00;95120.53;5063541;28;20020;-85
2023/09/21 04:35:05;;;;;;;7.72;3.80;;;;;;;23.78;100.00;95121.88;5049105;28;20085;-85
2023/09/21 04:37:38;;;;;;;7.35;3.85;;;;;;;23.75;100.00;95124.03;5052413;28;20139;-85
2023/09/21 04:40:05;;;;;;;10.43;3.78;;;;;;;23.93;100.00;95132.59;5060289;28;20039;-85
2023/09/21 04:42:35;;;;;;;10.77;3.97;;;;;;;23.99;100.00;95123.47;5053085;28;20473;-85
2023/09/21 04:45:08;;;;;;;8.95;4.03;;;;;;;23.97;100.00;95120.25;5044005;28;20040;-87
2023/09/21 04:47:39;;;;;;;7.93;3.45;;;;;;;23.65;100.00;95124.00;5048363;28;20020;-87
2023/09/21 04:50:17;;;;;;;8.80;4.70;;;;;;;23.09;100.00;95121.25;5057609;28;20081;-87
2023/09/21 04:52:45;;;;;;;8.73;4.43;;;;;;;23.74;100.00;95117.06;5081759;28;20139;-87
2023/09/21 04:55:16;;;;;;;10.27;4.65;;;;;;;23.88;100.00;95121.88;5071283;28;20020;-88
2023/09/21 04:57:43;;;;;;;11.07;4.35;;;;;;;23.30;100.00;95127.44;5069180;28;20016;-87
2023/09/21 05:00:12;;;;;;;11.55;4.55;;;;;;;23.86;100.00;95118.66;5045179;28;20142;-88
2023/09/21 05:02:38;;;;;;;6.93;4.40;;;;;;;23.45;100.00;95122.13;5048026;28;20031;-87
2023/09/21 05:05:04;;;;;;;9.90;5.07;;;;;;;23.60;100.00;95118.63;5053777;28;20119;-87
2023/09/21 05:07:30;;;;;;;7.32;4.95;;;;;;;23.69;100.00;95118.94;5047873;28;20025;-87
2023/09/21 05:09:56;;;;;;;6.30;4.40;;;;;;;23.81;100.00;95124.84;5069891;28;20028;-87
2023/09/21 05:12:22;;;;;;;10.90;4.50;;;;;;;23.62;100.00;95116.47;5056203;28;20032;-87
2023/09/21 05:14:48;;;;;;;5.88;3.88;;;;;;;23.41;100.00;95112.19;5074691;28;20099;-88
2023/09/21 05:17:15;;;;;;;9.07;4.70;;;;;;;23.45;100.00;95118.63;5053673;28;20398;-87
2023/09/21 05:19:46;;;;;;;10.87;4.40;;;;;;;23.42;100.00;95116.47;5064180;28;20109;-87
2023/09/21 05:22:12;;;;;;;11.32;4.70;;;;;;;23.70;100.00;95115.97;5064342;28;20482;-88
2023/09/21 05:24:39;;;;;;;7.43;4.20;;;;;;;23.95;100.00;95117.84;5056312;28;20031;-87
2023/09/21 05:27:06;;;;;;;7.18;4.55;;;;;;;24.06;100.00;95118.63;5050879;28;20054;-87
2023/09/21 05:29:32;;;;;;;9.10;5.50;;;;;;;24.23;100.00;95118.31;5057615;28;20071;-87
2023/09/21 05:31:57;;;;;;;8.35;4.28;;;;;;;24.18;100.00;95121.03;5084256;28;20093;-87
2023/09/21 05:34:26;;;;;;;7.88;5.00;;;;;;;24.01;100.00;95118.66;5058412;28;20028;-87
2023/09/21 05:36:53;;;;;;;7.07;4.55;;;;;;;24.21;100.00;95121.28;5072228;28;20020;-88
2023/09/21 05:39:19;;;;;;;7.78;4.10;;;;;;;23.76;100.00;95116.78;5102674;28;20078;-87
2023/09/21 05:41:48;;;;;;;6.40;4.13;;;;;;;23.68;100.00;95122.69;5088930;28;20020;-87
2023/09/21 05:44:14;;;;;;;8.70;4.90;;;;;;;23.44;100.00;95117.81;5057128;28;20056;-88
2023/09/21 05:46:41;;;;;;;8.27;4.15;;;;;;;24.02;100.00;95114.88;5038219;28;20114;-88
2023/09/21 05:49:11;;;;;;;8.35;4.63;;;;;;;24.34;100.00;95113.72;5048142;28;20043;-86
2023/09/21 05:51:37;;;;;;;10.48;4.35;;;;;;;24.42;100.00;95111.31;5040754;28;20540;-87
2023/09/21 05:54:04;;;;;;;11.68;4.10;;;;;;;24.66;100.00;95108.81;5058324;28;20119;-87
2023/09/21 05:56:31;;;;;;;7.82;3.92;;;;;;;25.62;100.00;95098.56;5059454;28;20057;-87
2023/09/21 05:58:57;;;;;;;9.27;3.83;;;;;;;25.94;100.00;95102.59;5072695;28;20081;-88
2023/09/21 06:01:22;;;;;;;8.23;5.03;;;;;;;26.00;100.00;95097.97;5069861;28;20036;-87
2023/09/21 06:03:48;;;;;;;8.85;4.45;;;;;;;25.54;100.00;95104.53;5064037;28;20016;-88
2023/09/21 06:06:14;;;;;;;12.55;5.20;;;;;;;24.80;100.00;95106.31;5049459;28;20029;-87
2023/09/21 06:08:40;;;;;;;9.02;5.13;;;;;;;25.37;100.00;95096.06;5054895;28;20050;-88
2023/09/21 06:11:34;;;;;;;9.57;4.25;;;;;;;26.20;100.00;95095.09;5058480;28;20025;-87
2023/09/21 06:13:59;;;;;;;;;;;;;;;25.77;100.00;95096.81;5083537;28;20028;-87
2023/09/21 06:16:25;;;;;;;9.50;4.30;;;;;;;26.38;96.25;95090.84;5053390;28;19957;-87
2023/09/21 06:18:50;;;;;;;9.73;4.32;;;;;;;26.62;97.53;95084.66;5064242;28;20047;-87
2023/09/21 06:21:16;;;;;;;7.97;3.78;;;;;;;26.55;97.59;95088.50;5075774;28;20031;-88
2023/09/21 06:23:44;;;;;;;6.40;4.00;;;;;;;26.63;97.48;95087.09;5072820;28;20031;-88
2023/09/21 06:26:14;;;;;;;9.32;3.60;;;;;;;26.46;99.60;95086.69;5072621;28;20028;-88
2023/09/21 06:28:47;;;;;;;7.50;3.95;;;;;;;26.38;94.93;95074.66;5080294;28;20055;-88
2023/09/21 06:31:13;;;;;;;6.93;3.55;;;;;;;26.99;93.41;95076.59;5070227;28;20064;-88
2023/09/21 06:33:40;;;;;;;6.57;3.20;;;;;;;27.37;85.82;95078.53;5053422;28;20050;-87
2023/09/21 06:36:07;;;;;;;7.25;3.08;;;;;;;27.04;87.19;95075.75;5071663;28;20054;-88
2023/09/21 06:38:33;;;;;;;7.95;3.53;;;;;;;27.47;86.71;95065.69;5047339;28;20031;-86
2023/09/21 06:40:58;;;;;;;5.93;3.28;;;;;;;27.20;88.96;95076.38;5068277;28;20035;-89
2023/09/21 06:43:29;;;;;;;8.40;3.28;;;;;;;26.89;91.58;95074.03;5053513;28;20020;-88
2023/09/21 06:45:54;;;;;;;9.60;3.50;;;;;;;26.30;96.23;95083.38;5071859;28;20028;-88
2023/09/21 06:48:20;;;;;;;7.47;3.83;;;;;;;26.29;98.93;95077.19;5075234;28;20036;-88
2023/09/21 06:50:46;;;;;;;8.30;3.38;;;;;;;26.68;98.81;95073.50;5071315;28;20024;-88
2023/09/21 06:53:11;;;;;;;8.73;3.83;;;;;;;26.99;97.06;95062.31;5076153;28;20032;-87
2023/09/21 06:55:37;;;;;;;5.60;2.75;;;;;;;28.03;86.86;95057.72;5086531;28;20017;-88
2023/09/21 06:58:03;;;;;;;8.93;3.22;;;;;;;28.95;80.23;95053.22;5069832;28;20063;-89
2023/09/21 07:00:28;;;;;;;8.27;2.97;;;;;;;29.05;76.11;95047.59;5065753;28;20027;-89
2023/09/21 07:02:54;;;;;;;11.68;3.38;;;;;;;28.82;76.55;95055.63;5068816;28;20027;-89
2023/09/21 07:05:20;;;;;;;5.93;3.13;;;;;;;28.73;77.43;95054.75;5045279;28;20467;-89
2023/09/21 07:07:46;;;;;;;5.95;3.60;;;;;;;28.78;79.18;95051.16;5073383;28;20030;-89
2023/09/21 07:10:12;;;;;;;7.38;2.67;;;;;;;28.96;76.40;95052.09;5047846;28;20035;-88
2023/09/21 07:12:40;;;;;;;8.18;3.60;;;;;;;29.21;76.36;95043.44;5059004;28;20032;-89
2023/09/21 07:15:10;;;;;;;7.53;2.88;;;;;;;29.13;74.07;95053.06;5059846;28;20081;-87
2023/09/21 07:17:36;;;;;;;7.30;3.15;;;;;;;30.65;63.69;95044.06;5059108;28;20095;-86
2023/09/21 07:20:06;;;;;;;4.55;2.85;;;;;;;31.78;57.03;95043.34;5071796;28;20027;-88
2023/09/21 07:22:32;;;;;;;6.60;3.15;;;;;;;31.74;55.29;95045.91;5069530;28;20074;-89
2023/09/21 07:25:00;;;;;;;7.90;3.45;;;;;;;31.23;54.80;95051.03;5052011;28;20413;-89
2023/09/21 07:27:25;;;;;;;7.38;4.57;;;;;;;30.81;55.07;95049.06;5071635;28;20028;-88
2023/09/21 07:29:58;;;;;;;8.88;4.00;;;;;;;30.33;57.19;95047.16;5070143;28;20031;-87
2023/09/21 07:32:28;;;;;;;9.50;4.20;;;;;;;30.18;57.21;95060.03;5069225;28;20023;-88
2023/09/21 07:34:54;;;;;;;4.75;3.10;;;;;;;29.56;58.35;95051.81;5064825;28;20020;-88
2023/09/21 07:37:20;;;;;;;6.15;2.95;;;;;;;29.75;59.72;95049.72;5061910;28;20023;-88
2023/09/21 07:39:45;;;;;;;7.20;3.08;;;;;;;30.28;58.14;95042.66;5057724;28;20020;-88
2023/09/21 07:42:11;;;;;;;5.80;2.85;;;;;;;30.58;56.68;95038.28;5068236;28;20473;-88
2023/09/21 07:44:37;;;;;;;6.45;2.90;;;;;;;31.95;51.72;95040.59;5078585;28;20020;-88
2023/09/21 07:47:03;;;;;;;5.95;2.63;;;;;;;31.38;52.81;95038.09;5047994;28;20466;-87
2023/09/21 07:49:28;;;;;;;6.50;2.75;;;;;;;31.74;49.52;95039.66;5075416;28;20477;-85
2023/09/21 07:51:56;;;;;;;4.88;2.40;;;;;;;31.21;52.47;95041.59;5056225;28;20393;-85
2023/09/21 07:54:22;;;;;;;4.38;2.47;;;;;;;29.99;57.45;95048.59;5051586;28;20024;-85
2023/09/21 07:56:48;;;;;;;4.68;2.65;;;;;;;32.30;51.37;95048.66;5056761;28;20072;-85
2023/09/21 07:59:15;;;;;;;5.32;2.60;;;;;;;33.52;46.59;95054.97;5070107;28;20123;-85
2023/09/21 08:01:42;;;;;;;7.50;2.70;;;;;;;34.02;43.83;95048.56;5072114;28;20024;-85
2023/09/21 08:04:08;;;;;;;5.03;2.42;;;;;;;33.88;44.13;95050.78;5059464;28;20020;-85
2023/09/21 08:06:34;;;;;;;5.90;2.70;;;;;;;35.03;39.80;95049.09;5073995;28;20020;-86
2023/09/21 08:09:00;;;;;;;7.05;2.33;;;;;;;33.27;41.17;95053.25;5045292;28;20024;-85
2023/09/21 08:11:26;;;;;;;6.55;2.00;;;;;;;32.74;41.45;95052.78;5056377;28;20477;-86
2023/09/21 08:13:52;;;;;;;3.97;1.92;;;;;;;32.78;43.64;95053.69;5060376;28;20011;-86
2023/09/21 08:16:17;;;;;;;5.70;2.67;;;;;;;34.16;42.25;95040.06;5057214;28;20046;-85
2023/09/21 08:18:43;;;;;;;4.72;2.33;;;;;;;34.85;41.20;95038.41;5071857;28;20077;-88
2023/09/21 08:21:10;;;;;;;5.13;2.50;;;;;;;36.14;38.55;95028.38;5083974;28;20027;-89
2023/09/21 08:23:36;;;;;;;4.70;2.15;;;;;;;37.02;38.13;95019.94;5055090;28;20024;-91
2023/09/21 08:26:02;;;;;;;4.10;2.30;;;;;;;37.09;38.17;95022.84;5051910;28;20028;-90
2023/09/21 08:28:29;;;;;;;5.05;2.50;;;;;;;37.71;36.87;95023.72;5087148;28;20020;-90
2023/09/21 08:30:55;;;;;;;7.85;2.53;;;;;;;37.04;35.34;95026.66;5069009;28;20107;-89
2023/09/21 08:33:22;;;;;;;5.95;1.90;;;;;;;38.25;34.32;95019.22;5073462;28;20351;-92
2023/09/21 08:35:48;;;;;;;4.13;2.05;;;;;;;36.80;36.82;95024.91;5072399;28;20099;-89
2023/09/21 08:38:15;;;;;;;3.72;1.98;;;;;;;38.54;34.66;95012.28;5064630;28;20055;-90
2023/09/21 08:40:43;;;;;;;4.00;2.22;;;;;;;38.11;34.22;95016.25;5061219;28;20111;-93
2023/09/21 08:43:17;;;;;;;6.05;2.20;;;;;;;38.37;32.80;95010.84;5076075;28;20478;-93
2023/09/21 08:45:43;;;;;;;3.88;2.00;;;;;;;38.08;32.72;95012.28;5055691;28;20024;-90
2023/09/21 08:48:10;;;;;;;3.10;1.63;;;;;;;37.55;32.86;95014.00;5060842;28;20112;-93
2023/09/21 08:50:39;;;;;;;5.68;1.95;;;;;;;38.03;33.08;95012.59;5045303;28;20021;-90
2023/09/21 08:53:12;;;;;;;4.82;1.88;;;;;;;38.41;30.88;95010.88;5068922;28;20375;-91
2023/09/21 08:55:41;;;;;;;4.90;2.20;;;;;;;39.10;30.41;95010.72;5074509;28;20049;-88
2023/09/21 08:58:11;;;;;;;4.15;1.83;;;;;;;39.75;29.10;95012.38;5090288;28;20013;-92
2023/09/21 09:00:40;;;;;;;5.28;1.90;;;;;;;39.14;29.43;95015.13;5072745;28;20021;-92
2023/09/21 09:03:06;;;;;;;4.75;2.00;;;;;;;38.37;30.18;95004.56;5065819;28;20043;-91
2023/09/21 09:05:33;;;;;;;2.88;1.45;;;;;;;38.38;29.03;95001.44;5070977;28;20012;-92
2023/09/21 09:07:59;;;;;;;3.67;2.05;;;;;;;38.99;29.85;94999.59;5089337;28;20093;-93
2023/09/21 09:10:25;;;;;;;3.97;1.67;;;;;;;39.77;28.84;94985.25;5093287;28;20029;-92
2023/09/21 09:13:05;;;;;;;3.92;2.00;;;;;;;39.00;29.17;94983.88;5080597;28;20169;-92
2023/09/21 09:15:35;;;;;;;3.25;1.60;;;;;;;39.01;30.86;94983.53;5091578;28;20013;-92
2023/09/21 09:18:05;;;;;;;4.93;2.63;;;;;;;38.87;29.04;94975.91;5075081;28;20043;-91
2023/09/21 09:20:32;;;;;;;9.13;4.90;;;;;;;39.74;27.86;94980.50;5096256;28;20024;-92
2023/09/21 09:22:58;;;;;;;2.83;1.50;;;;;;;40.19;27.46;94973.09;5082367;28;20024;-91
2023/09/21 09:25:25;;;;;;;2.67;1.60;;;;;;;40.23;28.02;94979.41;5078446;28;20111;-92
2023/09/21 09:27:50;;;;;;;2.70;1.40;;;;;;;40.20;26.59;94974.66;5075489;28;20019;-91
2023/09/21 09:30:16;;;;;;;4.45;1.98;;;;;;;39.28;28.15;94970.53;5071790;28;20057;-89
2023/09/21 09:32:42;;;;;;;4.57;2.60;;;;;;;38.65;28.63;94965.72;5064609;28;20020;-92
2023/09/21 09:35:13;;;;;;;4.90;2.00;;;;;;;39.19;28.80;94963.72;5085165;28;20025;-92
2023/09/21 09:37:43;;;;;;;3.30;1.73;;;;;;;40.00;26.47;94960.28;5053748;28;20025;-90
2023/09/21 09:40:18;;;;;;;3.75;1.92;;;;;;;39.65;26.71;94960.72;5064329;28;20035;-90
2023/09/21 09:42:45;;;;;;;4.75;2.35;;;;;;;38.29;28.17;94965.16;5090642;28;20050;-90
2023/09/21 09:45:38;;;;;;;3.45;1.83;;;;;;;39.03;27.98;94969.41;5073573;28;20024;-89
2023/09/21 09:48:14;;;;;;;3.03;1.90;;;;;;;39.12;27.38;94964.41;5067880;28;20548;-90
2023/09/21 09:50:41;;;;;;;4.13;1.80;;;;;;;38.63;27.80;94963.38;5044122;28;20024;-90
2023/09/21 09:53:13;;;;;;;5.25;2.08;;;;;;;38.44;28.54;94966.22;5055476;28;20438;-90
2023/09/21 09:55:42;;;;;;;3.72;2.00;;;;;;;39.54;27.61;94963.34;5072310;28;20024;-89
2023/09/21 09:58:08;;;;;;;3.38;2.00;;;;;;;40.30;27.33;94957.44;5051878;28;20023;-89
2023/09/21 10:00:39;;;;;;;3.90;1.83;;;;;;;40.62;26.85;94967.94;5051000;28;20134;-88
2023/09/21 10:03:09;;;;;;;2.88;1.80;;;;;;;41.12;27.08;94962.72;5065970;28;20032;-89
2023/09/21 10:05:39;;;;;;;5.20;1.83;;;;;;;40.92;27.52;94962.19;5049250;28;20031;-88
2023/09/21 10:08:08;;;;;;;3.42;2.03;;;;;;;41.01;26.61;94951.63;5054940;28;20024;-88
2023/09/21 10:10:55;;;;;;;3.67;2.22;;;;;;;42.26;26.45;94957.50;5048980;28;20031;-89
2023/09/21 10:13:25;;;;;;;4.05;2.00;;;;;;;39.61;27.81;94955.19;5048456;28;20036;-91
2023/09/21 10:16:01;;;;;;;3.35;1.98;;;;;;;41.30;26.49;94951.75;5058628;28;20111;-89
2023/09/21 10:18:29;;;;;;;5.82;2.63;;;;;;;41.17;27.31;94951.31;5064545;28;20025;-83
2023/09/21 10:20:58;;;;;;;4.82;1.92;;;;;;;39.89;28.40;94940.94;5063524;28;20028;-83
2023/09/21 10:23:27;;;;;;;4.45;1.90;;;;;;;40.18;28.56;94935.72;5074340;28;20127;-83
2023/09/21 10:25:55;;;;;;;5.07;2.60;;;;;;;38.93;29.06;94937.06;5055000;28;20032;-83
2023/09/21 10:28:27;;;;;;;3.83;1.75;;;;;;;39.57;28.57;94924.91;5063515;28;20091;-89
2023/09/21 10:30:53;;;;;;;3.58;2.00;;;;;;;38.35;28.59;94927.97;5069933;28;20036;-88
2023/09/21 10:33:19;;;;;;;4.38;2.00;;;;;;;39.80;27.74;94908.22;5072433;28;20024;-88
2023/09/21 10:35:45;;;;;;;3.35;1.73;;;;;;;39.74;27.07;94906.19;5040121;28;20032;-88
2023/09/21 10:38:13;;;;;;;2.42;1.75;;;;;;;39.04;28.67;94905.81;5054328;28;20035;-87
2023/09/21 10:40:40;;;;;;;6.63;2.25;;;;;;;39.90;26.57;94897.69;5055945;28;20020;-88
2023/09/21 10:43:38;;;;;;;3.42;2.00;;;;;;;41.62;26.34;94896.66;5052775;28;20020;-88
2023/09/21 10:46:16;;;;;;;2.92;1.70;;;;;;;40.47;26.94;94898.91;5042523;28;20034;-76
2023/09/21 10:48:46;;;;;;;3.92;1.70;;;;;;;39.59;27.16;94895.03;5049244;28;20054;-80
2023/09/21 10:51:12;;;;;;;7.38;2.00;;;;;;;40.26;27.16;94893.28;5079819;28;20074;-83
2023/09/21 10:53:39;;;;;;;5.35;1.90;;;;;;;40.24;26.02;94890.91;5057241;28;20025;-84
2023/09/21 10:56:05;;;;;;;3.20;2.00;;;;;;;40.82;25.82;94883.00;5043139;28;20052;-84
2023/09/21 10:58:34;;;;;;;4.28;1.98;;;;;;;39.79;27.47;94887.38;5060602;28;20032;-83
2023/09/21 11:01:00;;;;;;;5.63;2.30;;;;;;;37.71;28.03;94877.53;5060208;28;20497;-84
2023/09/21 11:03:29;;;;;;;4.80;2.17;;;;;;;39.04;28.03;94872.81;5062519;28;20043;-84
2023/09/21 11:05:55;;;;;;;5.50;2.03;;;;;;;37.01;29.24;94867.63;5053011;28;20030;-84
2023/09/21 11:08:24;;;;;;;4.03;1.77;;;;;;;36.82;29.65;94873.88;5057812;28;20394;-87
2023/09/21 11:10:50;;;;;;;3.88;1.75;;;;;;;36.85;31.14;94877.84;5084650;28;20069;-86
2023/09/21 11:13:17;;;;;;;5.63;1.92;;;;;;;36.62;31.25;94862.13;5054268;28;20474;-84
2023/09/21 11:15:44;;;;;;;3.05;1.83;;;;;;;35.45;31.95;94851.91;5058194;28;20042;-82
2023/09/21 11:18:09;;;;;;;5.28;1.70;;;;;;;35.61;31.70;94850.00;5067881;28;20103;-83
2023/09/21 11:20:36;;;;;;;5.32;2.00;;;;;;;36.96;29.57;94845.97;5050884;28;20029;-83
2023/09/21 11:23:03;;;;;;;3.55;1.90;;;;;;;35.46;31.67;94850.78;5049644;28;20506;-83
2023/09/21 11:25:29;;;;;;;5.10;1.52;;;;;;;37.98;28.39;94837.22;5061015;28;20111;-83
2023/09/21 11:27:58;;;;;;;3.60;1.60;;;;;;;35.75;28.26;94836.69;5058871;28;20150;-82
2023/09/21 11:30:25;;;;;;;3.22;1.40;;;;;;;38.34;26.17;94821.25;5047510;28;20445;-83
2023/09/21 11:32:52;;;;;;;3.30;1.30;;;;;;;38.08;26.13;94824.81;5055421;28;20039;-83
2023/09/21 11:35:19;;;;;;;2.75;1.50;;;;;;;37.88;27.05;94824.09;5062498;28;20060;-83